Terminal Aerodrome Forecast
Issued by NWS

Home | Current Version | Previous Version | Text Only | Print | Product List | Glossary On
Versions: 1 2 3 4 5 6 7 8 9 10 11 12 13 14 15
322
FTUS45 KRIW 222334
TAFCPR
TAF
KCPR 222334Z 2300/2324 24017G25KT P6SM VCSH SCT050 OVC090
     FM230200 23013KT P6SM SCT120
     FM230900 24009KT P6SM FEW250
     FM232300 24014G23KT P6SM VCSH FEW090=

USA.gov is the U.S. government's official web portal to all federal, state and local government web resources and services.